sensor_id;sensor_type;location;lat;lon;timestamp;temperature;humidity
10314;DHT22;5202;49.138;10.090;2024-03-08T00:00:40;1.60;99.90
10314;DHT22;5202;49.138;10.090;2024-03-08T00:03:09;1.50;99.90
10314;DHT22;5202;49.138;10.090;2024-03-08T00:05:38;1.50;99.90
10314;DHT22;5202;49.138;10.090;2024-03-08T00:08:06;1.50;99.90
10314;DHT22;5202;49.138;10.090;2024-03-08T00:10:37;1.50;99.90
10314;DHT22;5202;49.138;10.090;2024-03-08T00:13:06;1.50;99.90
10314;DHT22;5202;49.138;10.090;2024-03-08T00:15:34;1.40;99.90
10314;DHT22;5202;49.138;10.090;2024-03-08T00:18:04;1.40;99.90
10314;DHT22;5202;49.138;10.090;2024-03-08T00:20:33;1.30;99.90
10314;DHT22;5202;49.138;10.090;2024-03-08T00:23:01;1.30;99.90
10314;DHT22;5202;49.138;10.090;2024-03-08T00:25:30;1.30;99.90
10314;DHT22;5202;49.138;10.090;2024-03-08T00:27:58;1.30;99.90
10314;DHT22;5202;49.138;10.090;2024-03-08T00:30:27;1.30;99.90
10314;DHT22;5202;49.138;10.090;2024-03-08T00:32:56;1.30;99.90
10314;DHT22;5202;49.138;10.090;2024-03-08T00:35:26;1.20;99.90
10314;DHT22;5202;49.138;10.090;2024-03-08T00:37:54;1.20;99.90
10314;DHT22;5202;49.138;10.090;2024-03-08T00:40:23;1.20;99.90
10314;DHT22;5202;49.138;10.090;2024-03-08T00:42:52;1.20;99.90
10314;DHT22;5202;49.138;10.090;2024-03-08T00:45:21;1.20;99.90
10314;DHT22;5202;49.138;10.090;2024-03-08T00:47:50;1.10;99.90
10314;DHT22;5202;49.138;10.090;2024-03-08T00:50:19;1.10;99.90
10314;DHT22;5202;49.138;10.090;2024-03-08T00:52:48;1.10;99.90
10314;DHT22;5202;49.138;10.090;2024-03-08T00:55:17;1.10;99.90
10314;DHT22;5202;49.138;10.090;2024-03-08T00:57:45;1.10;99.90
10314;DHT22;5202;49.138;10.090;2024-03-08T01:00:14;1.10;99.90
10314;DHT22;5202;49.138;10.090;2024-03-08T01:02:43;1.10;99.90
10314;DHT22;5202;49.138;10.090;2024-03-08T01:05:12;1.10;99.90
10314;DHT22;5202;49.138;10.090;2024-03-08T01:07:44;1.00;99.90
10314;DHT22;5202;49.138;10.090;2024-03-08T01:10:17;1.00;99.90
10314;DHT22;5202;49.138;10.090;2024-03-08T01:12:46;1.00;99.90
10314;DHT22;5202;49.138;10.090;2024-03-08T01:15:14;1.00;99.90
10314;DHT22;5202;49.138;10.090;2024-03-08T01:17:42;1.00;99.90
10314;DHT22;5202;49.138;10.090;2024-03-08T01:20:11;1.00;99.90
10314;DHT22;5202;49.138;10.090;2024-03-08T01:22:40;1.10;99.90
10314;DHT22;5202;49.138;10.090;2024-03-08T01:25:09;1.00;99.90
10314;DHT22;5202;49.138;10.090;2024-03-08T01:27:39;1.00;99.90
10314;DHT22;5202;49.138;10.090;2024-03-08T01:30:07;1.00;99.90
10314;DHT22;5202;49.138;10.090;2024-03-08T01:32:37;1.00;99.90
10314;DHT22;5202;49.138;10.090;2024-03-08T01:35:06;1.00;99.90
10314;DHT22;5202;49.138;10.090;2024-03-08T01:37:37;1.00;99.90
10314;DHT22;5202;49.138;10.090;2024-03-08T01:40:06;1.00;99.90
10314;DHT22;5202;49.138;10.090;2024-03-08T01:42:36;1.00;99.90
10314;DHT22;5202;49.138;10.090;2024-03-08T01:45:07;1.00;99.90
10314;DHT22;5202;49.138;10.090;2024-03-08T01:47:37;0.90;99.90
10314;DHT22;5202;49.138;10.090;2024-03-08T01:50:07;0.90;99.90
10314;DHT22;5202;49.138;10.090;2024-03-08T01:52:37;0.90;99.90
10314;DHT22;5202;49.138;10.090;2024-03-08T01:55:06;0.90;99.90
10314;DHT22;5202;49.138;10.090;2024-03-08T01:57:35;0.90;99.90
10314;DHT22;5202;49.138;10.090;2024-03-08T02:00:07;0.90;99.90
10314;DHT22;5202;49.138;10.090;2024-03-08T02:02:42;0.90;99.90
10314;DHT22;5202;49.138;10.090;2024-03-08T02:05:11;0.90;99.90
10314;DHT22;5202;49.138;10.090;2024-03-08T02:07:41;0.90;99.90
10314;DHT22;5202;49.138;10.090;2024-03-08T02:10:11;0.90;99.90
10314;DHT22;5202;49.138;10.090;2024-03-08T02:12:39;0.90;99.90
10314;DHT22;5202;49.138;10.090;2024-03-08T02:15:09;0.90;99.90
10314;DHT22;5202;49.138;10.090;2024-03-08T02:17:38;0.80;99.90
10314;DHT22;5202;49.138;10.090;2024-03-08T02:20:07;0.80;99.90
10314;DHT22;5202;49.138;10.090;2024-03-08T02:22:39;0.80;99.90
10314;DHT22;5202;49.138;10.090;2024-03-08T02:25:08;0.80;99.90
10314;DHT22;5202;49.138;10.090;2024-03-08T02:27:37;0.80;99.90
10314;DHT22;5202;49.138;10.090;2024-03-08T02:30:06;0.80;99.90
10314;DHT22;5202;49.138;10.090;2024-03-08T02:32:36;0.70;99.90
10314;DHT22;5202;49.138;10.090;2024-03-08T02:35:06;0.70;99.90
10314;DHT22;5202;49.138;10.090;2024-03-08T02:37:34;0.70;99.90
10314;DHT22;5202;49.138;10.090;2024-03-08T02:40:05;0.60;99.90
10314;DHT22;5202;49.138;10.090;2024-03-08T02:42:34;0.60;99.90
10314;DHT22;5202;49.138;10.090;2024-03-08T02:45:03;0.60;99.90
10314;DHT22;5202;49.138;10.090;2024-03-08T02:47:32;0.60;99.90
10314;DHT22;5202;49.138;10.090;2024-03-08T02:50:02;0.70;99.90
10314;DHT22;5202;49.138;10.090;2024-03-08T02:52:31;0.60;99.90
10314;DHT22;5202;49.138;10.090;2024-03-08T02:55:00;0.60;99.90
10314;DHT22;5202;49.138;10.090;2024-03-08T02:57:30;0.60;99.90
10314;DHT22;5202;49.138;10.090;2024-03-08T02:59:59;0.60;99.90
10314;DHT22;5202;49.138;10.090;2024-03-08T03:02:27;0.50;99.90
10314;DHT22;5202;49.138;10.090;2024-03-08T03:04:56;0.50;99.90
10314;DHT22;5202;49.138;10.090;2024-03-08T03:07:27;0.50;99.90
10314;DHT22;5202;49.138;10.090;2024-03-08T03:09:55;0.50;99.90
10314;DHT22;5202;49.138;10.090;2024-03-08T03:12:24;0.40;99.90
10314;DHT22;5202;49.138;10.090;2024-03-08T03:14:53;0.50;99.90
10314;DHT22;5202;49.138;10.090;2024-03-08T03:17:23;0.40;99.90
10314;DHT22;5202;49.138;10.090;2024-03-08T03:19:52;0.40;99.90
10314;DHT22;5202;49.138;10.090;2024-03-08T03:22:21;0.40;99.90
10314;DHT22;5202;49.138;10.090;2024-03-08T03:24:50;0.50;99.90
10314;DHT22;5202;49.138;10.090;2024-03-08T03:27:18;0.40;99.90
10314;DHT22;5202;49.138;10.090;2024-03-08T03:29:47;0.40;99.90
10314;DHT22;5202;49.138;10.090;2024-03-08T03:32:18;0.40;99.90
10314;DHT22;5202;49.138;10.090;2024-03-08T03:34:46;0.30;99.90
10314;DHT22;5202;49.138;10.090;2024-03-08T03:37:14;0.30;99.90
10314;DHT22;5202;49.138;10.090;2024-03-08T03:39:45;0.30;99.90
10314;DHT22;5202;49.138;10.090;2024-03-08T03:42:16;0.30;99.90
10314;DHT22;5202;49.138;10.090;2024-03-08T03:44:45;0.30;99.90
10314;DHT22;5202;49.138;10.090;2024-03-08T03:47:14;0.30;99.90
10314;DHT22;5202;49.138;10.090;2024-03-08T03:49:44;0.30;99.90
10314;DHT22;5202;49.138;10.090;2024-03-08T03:52:13;0.40;99.90
10314;DHT22;5202;49.138;10.090;2024-03-08T03:54:42;0.40;99.90
10314;DHT22;5202;49.138;10.090;2024-03-08T03:57:10;0.40;99.90
10314;DHT22;5202;49.138;10.090;2024-03-08T03:59:40;0.30;99.90
10314;DHT22;5202;49.138;10.090;2024-03-08T04:02:09;0.30;99.90
10314;DHT22;5202;49.138;10.090;2024-03-08T04:04:37;0.30;99.90
10314;DHT22;5202;49.138;10.090;2024-03-08T04:07:07;0.30;99.90
10314;DHT22;5202;49.138;10.090;2024-03-08T04:09:36;0.30;99.90
10314;DHT22;5202;49.138;10.090;2024-03-08T04:12:05;0.30;99.90
10314;DHT22;5202;49.138;10.090;2024-03-08T04:14:34;0.30;99.90
10314;DHT22;5202;49.138;10.090;2024-03-08T04:17:03;0.40;99.90
10314;DHT22;5202;49.138;10.090;2024-03-08T04:19:32;0.40;99.90
10314;DHT22;5202;49.138;10.090;2024-03-08T04:22:01;0.40;99.90
10314;DHT22;5202;49.138;10.090;2024-03-08T04:24:31;0.30;99.90
10314;DHT22;5202;49.138;10.090;2024-03-08T04:27:00;0.30;99.90
10314;DHT22;5202;49.138;10.090;2024-03-08T04:29:28;0.30;99.90
10314;DHT22;5202;49.138;10.090;2024-03-08T04:31:57;0.30;99.90
10314;DHT22;5202;49.138;10.090;2024-03-08T04:34:25;0.30;99.90
10314;DHT22;5202;49.138;10.090;2024-03-08T04:36:57;0.30;99.90
10314;DHT22;5202;49.138;10.090;2024-03-08T04:39:25;0.30;99.90
10314;DHT22;5202;49.138;10.090;2024-03-08T04:41:58;0.30;99.90
10314;DHT22;5202;49.138;10.090;2024-03-08T04:44:32;0.30;99.90
10314;DHT22;5202;49.138;10.090;2024-03-08T04:47:00;0.30;99.90
10314;DHT22;5202;49.138;10.090;2024-03-08T04:49:29;0.20;99.90
10314;DHT22;5202;49.138;10.090;2024-03-08T04:51:57;0.20;99.90
10314;DHT22;5202;49.138;10.090;2024-03-08T04:54:26;0.10;99.90
10314;DHT22;5202;49.138;10.090;2024-03-08T04:56:56;0.10;99.90
10314;DHT22;5202;49.138;10.090;2024-03-08T04:59:25;0.00;99.90
10314;DHT22;5202;49.138;10.090;2024-03-08T05:01:53;0.00;99.90
10314;DHT22;5202;49.138;10.090;2024-03-08T05:04:25;0.00;99.90
10314;DHT22;5202;49.138;10.090;2024-03-08T05:06:56;-0.10;99.90
10314;DHT22;5202;49.138;10.090;2024-03-08T05:09:27;0.00;99.90
10314;DHT22;5202;49.138;10.090;2024-03-08T05:12:00;-0.10;99.90
10314;DHT22;5202;49.138;10.090;2024-03-08T05:14:29;-0.10;99.90
10314;DHT22;5202;49.138;10.090;2024-03-08T05:16:57;-0.10;99.90
10314;DHT22;5202;49.138;10.090;2024-03-08T05:19:25;-0.10;99.90
10314;DHT22;5202;49.138;10.090;2024-03-08T05:21:56;-0.10;99.90
10314;DHT22;5202;49.138;10.090;2024-03-08T05:24:25;-0.10;99.90
10314;DHT22;5202;49.138;10.090;2024-03-08T05:26:53;-0.10;99.90
10314;DHT22;5202;49.138;10.090;2024-03-08T05:29:23;-0.10;99.90
10314;DHT22;5202;49.138;10.090;2024-03-08T05:31:52;-0.10;99.90
10314;DHT22;5202;49.138;10.090;2024-03-08T05:34:20;-0.10;99.90
10314;DHT22;5202;49.138;10.090;2024-03-08T05:36:49;-0.10;99.90
10314;DHT22;5202;49.138;10.090;2024-03-08T05:39:19;-0.10;99.90
10314;DHT22;5202;49.138;10.090;2024-03-08T05:41:48;-0.10;99.90
10314;DHT22;5202;49.138;10.090;2024-03-08T05:44:20;-0.10;99.90
10314;DHT22;5202;49.138;10.090;2024-03-08T05:46:50;-0.10;99.90
10314;DHT22;5202;49.138;10.090;2024-03-08T05:49:18;-0.10;99.90
10314;DHT22;5202;49.138;10.090;2024-03-08T05:51:48;-0.10;99.90
10314;DHT22;5202;49.138;10.090;2024-03-08T05:54:16;-0.20;99.90
10314;DHT22;5202;49.138;10.090;2024-03-08T05:56:48;-0.20;99.90
10314;DHT22;5202;49.138;10.090;2024-03-08T05:59:20;-0.20;99.90
10314;DHT22;5202;49.138;10.090;2024-03-08T06:01:51;-0.20;99.90
10314;DHT22;5202;49.138;10.090;2024-03-08T06:04:20;-0.20;99.90
10314;DHT22;5202;49.138;10.090;2024-03-08T06:06:48;-0.20;99.90
10314;DHT22;5202;49.138;10.090;2024-03-08T06:09:19;-0.20;99.90
10314;DHT22;5202;49.138;10.090;2024-03-08T06:11:51;-0.20;99.90
10314;DHT22;5202;49.138;10.090;2024-03-08T06:14:21;-0.20;99.90
10314;DHT22;5202;49.138;10.090;2024-03-08T06:16:52;-0.20;99.90
10314;DHT22;5202;49.138;10.090;2024-03-08T06:19:20;-0.10;99.90
10314;DHT22;5202;49.138;10.090;2024-03-08T06:21:48;-0.10;99.90
10314;DHT22;5202;49.138;10.090;2024-03-08T06:24:17;-0.10;99.90
10314;DHT22;5202;49.138;10.090;2024-03-08T06:26:46;-0.10;99.90
10314;DHT22;5202;49.138;10.090;2024-03-08T06:29:15;-0.10;99.90
10314;DHT22;5202;49.138;10.090;2024-03-08T06:31:44;-0.10;99.90
10314;DHT22;5202;49.138;10.090;2024-03-08T06:34:14;-0.10;99.90
10314;DHT22;5202;49.138;10.090;2024-03-08T06:36:42;0.00;99.90
10314;DHT22;5202;49.138;10.090;2024-03-08T06:39:10;0.00;99.90
10314;DHT22;5202;49.138;10.090;2024-03-08T06:41:39;0.10;99.90
10314;DHT22;5202;49.138;10.090;2024-03-08T06:44:07;0.10;99.90
10314;DHT22;5202;49.138;10.090;2024-03-08T06:46:36;0.20;99.90
10314;DHT22;5202;49.138;10.090;2024-03-08T06:49:05;0.30;99.90
10314;DHT22;5202;49.138;10.090;2024-03-08T06:51:36;0.30;99.90
10314;DHT22;5202;49.138;10.090;2024-03-08T06:54:04;0.30;99.90
10314;DHT22;5202;49.138;10.090;2024-03-08T06:56:36;0.30;99.90
10314;DHT22;5202;49.138;10.090;2024-03-08T06:59:05;0.40;99.90
10314;DHT22;5202;49.138;10.090;2024-03-08T07:01:33;0.40;99.90
10314;DHT22;5202;49.138;10.090;2024-03-08T07:04:12;0.40;99.90
10314;DHT22;5202;49.138;10.090;2024-03-08T07:06:42;0.50;99.90
10314;DHT22;5202;49.138;10.090;2024-03-08T07:09:11;0.50;99.90
10314;DHT22;5202;49.138;10.090;2024-03-08T07:11:43;0.60;99.90
10314;DHT22;5202;49.138;10.090;2024-03-08T07:14:11;0.60;99.90
10314;DHT22;5202;49.138;10.090;2024-03-08T07:16:42;0.60;99.90
10314;DHT22;5202;49.138;10.090;2024-03-08T07:19:11;0.70;99.90
10314;DHT22;5202;49.138;10.090;2024-03-08T07:21:45;0.70;99.90
10314;DHT22;5202;49.138;10.090;2024-03-08T07:24:14;0.80;99.90
10314;DHT22;5202;49.138;10.090;2024-03-08T07:27:02;0.80;99.90
10314;DHT22;5202;49.138;10.090;2024-03-08T07:29:32;0.90;99.90
10314;DHT22;5202;49.138;10.090;2024-03-08T07:32:00;0.90;99.90
10314;DHT22;5202;49.138;10.090;2024-03-08T07:34:39;1.00;99.90
10314;DHT22;5202;49.138;10.090;2024-03-08T07:37:09;1.00;99.90
10314;DHT22;5202;49.138;10.090;2024-03-08T07:39:38;1.10;99.90
10314;DHT22;5202;49.138;10.090;2024-03-08T07:42:07;1.10;99.90
10314;DHT22;5202;49.138;10.090;2024-03-08T07:44:35;1.20;99.90
10314;DHT22;5202;49.138;10.090;2024-03-08T07:47:04;1.20;99.90
10314;DHT22;5202;49.138;10.090;2024-03-08T07:49:37;1.30;99.90
10314;DHT22;5202;49.138;10.090;2024-03-08T07:52:06;1.30;99.90
10314;DHT22;5202;49.138;10.090;2024-03-08T07:54:36;1.40;99.90
10314;DHT22;5202;49.138;10.090;2024-03-08T07:57:04;1.50;99.90
10314;DHT22;5202;49.138;10.090;2024-03-08T07:59:34;1.60;99.90
10314;DHT22;5202;49.138;10.090;2024-03-08T08:02:02;1.60;99.90
10314;DHT22;5202;49.138;10.090;2024-03-08T08:04:32;1.70;99.90
10314;DHT22;5202;49.138;10.090;2024-03-08T08:07:00;1.80;99.90
10314;DHT22;5202;49.138;10.090;2024-03-08T08:09:29;1.80;99.90
10314;DHT22;5202;49.138;10.090;2024-03-08T08:12:03;1.90;99.90
10314;DHT22;5202;49.138;10.090;2024-03-08T08:14:32;1.90;99.90
10314;DHT22;5202;49.138;10.090;2024-03-08T08:17:00;1.90;99.90
10314;DHT22;5202;49.138;10.090;2024-03-08T08:19:31;2.00;99.90
10314;DHT22;5202;49.138;10.090;2024-03-08T08:22:00;2.10;99.90
10314;DHT22;5202;49.138;10.090;2024-03-08T08:24:29;2.10;99.90
10314;DHT22;5202;49.138;10.090;2024-03-08T08:26:57;2.20;99.90
10314;DHT22;5202;49.138;10.090;2024-03-08T08:29:27;2.20;99.90
10314;DHT22;5202;49.138;10.090;2024-03-08T08:31:57;2.30;99.90
10314;DHT22;5202;49.138;10.090;2024-03-08T08:34:29;2.30;99.90
10314;DHT22;5202;49.138;10.090;2024-03-08T08:36:58;2.40;99.90
10314;DHT22;5202;49.138;10.090;2024-03-08T08:39:28;2.40;99.90
10314;DHT22;5202;49.138;10.090;2024-03-08T08:41:56;2.40;99.90
10314;DHT22;5202;49.138;10.090;2024-03-08T08:44:26;2.40;99.90
10314;DHT22;5202;49.138;10.090;2024-03-08T08:46:54;2.50;99.90
10314;DHT22;5202;49.138;10.090;2024-03-08T08:49:32;2.50;99.90
10314;DHT22;5202;49.138;10.090;2024-03-08T08:52:00;2.60;99.90
10314;DHT22;5202;49.138;10.090;2024-03-08T08:54:41;2.70;99.90
10314;DHT22;5202;49.138;10.090;2024-03-08T08:57:29;2.70;99.90
10314;DHT22;5202;49.138;10.090;2024-03-08T08:59:59;2.80;99.90
10314;DHT22;5202;49.138;10.090;2024-03-08T09:02:28;2.90;99.90
10314;DHT22;5202;49.138;10.090;2024-03-08T09:04:58;3.00;99.90
10314;DHT22;5202;49.138;10.090;2024-03-08T09:07:32;3.10;99.90
10314;DHT22;5202;49.138;10.090;2024-03-08T09:10:01;3.10;99.90
10314;DHT22;5202;49.138;10.090;2024-03-08T09:12:44;3.20;99.90
10314;DHT22;5202;49.138;10.090;2024-03-08T09:15:13;3.30;99.90
10314;DHT22;5202;49.138;10.090;2024-03-08T09:17:44;3.50;99.90
10314;DHT22;5202;49.138;10.090;2024-03-08T09:20:18;3.80;99.90
10314;DHT22;5202;49.138;10.090;2024-03-08T09:22:47;3.80;99.90
10314;DHT22;5202;49.138;10.090;2024-03-08T09:25:15;3.80;99.90
10314;DHT22;5202;49.138;10.090;2024-03-08T09:27:43;3.80;99.90
10314;DHT22;5202;49.138;10.090;2024-03-08T09:30:15;4.00;99.90
10314;DHT22;5202;49.138;10.090;2024-03-08T09:32:44;4.10;99.90
10314;DHT22;5202;49.138;10.090;2024-03-08T09:35:13;4.20;99.90
10314;DHT22;5202;49.138;10.090;2024-03-08T09:37:42;4.20;99.90
10314;DHT22;5202;49.138;10.090;2024-03-08T09:40:10;4.30;99.90
10314;DHT22;5202;49.138;10.090;2024-03-08T09:42:42;4.50;99.90
10314;DHT22;5202;49.138;10.090;2024-03-08T09:45:13;4.60;99.90
10314;DHT22;5202;49.138;10.090;2024-03-08T09:47:45;4.80;99.90
10314;DHT22;5202;49.138;10.090;2024-03-08T09:50:13;5.00;99.90
10314;DHT22;5202;49.138;10.090;2024-03-08T09:52:43;5.10;99.90
10314;DHT22;5202;49.138;10.090;2024-03-08T09:55:16;5.10;99.90
10314;DHT22;5202;49.138;10.090;2024-03-08T09:57:51;5.20;99.90
10314;DHT22;5202;49.138;10.090;2024-03-08T10:00:39;5.30;99.90
10314;DHT22;5202;49.138;10.090;2024-03-08T10:03:09;5.40;99.90
10314;DHT22;5202;49.138;10.090;2024-03-08T10:05:41;5.60;99.90
10314;DHT22;5202;49.138;10.090;2024-03-08T10:08:11;5.70;99.90
10314;DHT22;5202;49.138;10.090;2024-03-08T10:10:40;5.80;99.90
10314;DHT22;5202;49.138;10.090;2024-03-08T10:13:10;5.90;99.90
10314;DHT22;5202;49.138;10.090;2024-03-08T10:15:43;6.00;99.90
10314;DHT22;5202;49.138;10.090;2024-03-08T10:18:12;6.10;99.70
10314;DHT22;5202;49.138;10.090;2024-03-08T10:20:41;6.20;99.90
10314;DHT22;5202;49.138;10.090;2024-03-08T10:23:10;6.30;99.60
10314;DHT22;5202;49.138;10.090;2024-03-08T10:25:38;6.40;99.90
10314;DHT22;5202;49.138;10.090;2024-03-08T10:28:07;6.60;99.50
10314;DHT22;5202;49.138;10.090;2024-03-08T10:30:35;6.60;99.80
10314;DHT22;5202;49.138;10.090;2024-03-08T10:33:06;6.70;99.40
10314;DHT22;5202;49.138;10.090;2024-03-08T10:35:34;6.90;99.40
10314;DHT22;5202;49.138;10.090;2024-03-08T10:38:05;7.20;99.80
10314;DHT22;5202;49.138;10.090;2024-03-08T10:40:38;7.20;98.00
10314;DHT22;5202;49.138;10.090;2024-03-08T10:43:15;7.30;97.90
10314;DHT22;5202;49.138;10.090;2024-03-08T10:46:01;7.40;97.80
10314;DHT22;5202;49.138;10.090;2024-03-08T10:48:43;7.50;97.30
10314;DHT22;5202;49.138;10.090;2024-03-08T10:51:12;7.50;97.90
10314;DHT22;5202;49.138;10.090;2024-03-08T10:53:41;7.60;96.40
10314;DHT22;5202;49.138;10.090;2024-03-08T10:56:10;7.70;96.60
10314;DHT22;5202;49.138;10.090;2024-03-08T10:58:42;7.70;96.30
10314;DHT22;5202;49.138;10.090;2024-03-08T11:01:12;7.80;96.90
10314;DHT22;5202;49.138;10.090;2024-03-08T11:03:52;8.00;96.60
10314;DHT22;5202;49.138;10.090;2024-03-08T11:06:30;8.10;95.60
10314;DHT22;5202;49.138;10.090;2024-03-08T11:12:24;8.50;96.60
10314;DHT22;5202;49.138;10.090;2024-03-08T11:14:54;8.60;95.20
10314;DHT22;5202;49.138;10.090;2024-03-08T11:17:45;8.60;95.60
10314;DHT22;5202;49.138;10.090;2024-03-08T11:20:18;8.80;94.50
10314;DHT22;5202;49.138;10.090;2024-03-08T11:22:50;8.90;94.90
10314;DHT22;5202;49.138;10.090;2024-03-08T11:25:36;8.90;94.60
10314;DHT22;5202;49.138;10.090;2024-03-08T11:28:10;9.10;94.70
10314;DHT22;5202;49.138;10.090;2024-03-08T11:30:44;9.00;94.20
10314;DHT22;5202;49.138;10.090;2024-03-08T11:33:16;9.10;93.80
10314;DHT22;5202;49.138;10.090;2024-03-08T11:35:47;9.20;94.30
10314;DHT22;5202;49.138;10.090;2024-03-08T11:38:15;9.40;93.50
10314;DHT22;5202;49.138;10.090;2024-03-08T11:40:46;9.40;92.70
10314;DHT22;5202;49.138;10.090;2024-03-08T11:43:18;9.40;93.00
10314;DHT22;5202;49.138;10.090;2024-03-08T11:45:47;9.40;92.80
10314;DHT22;5202;49.138;10.090;2024-03-08T11:48:15;9.40;92.50
10314;DHT22;5202;49.138;10.090;2024-03-08T11:50:44;9.50;92.20
10314;DHT22;5202;49.138;10.090;2024-03-08T11:53:13;9.60;92.00
10314;DHT22;5202;49.138;10.090;2024-03-08T11:55:42;9.70;91.60
10314;DHT22;5202;49.138;10.090;2024-03-08T11:58:12;9.80;91.10
10314;DHT22;5202;49.138;10.090;2024-03-08T12:00:40;9.90;90.80
10314;DHT22;5202;49.138;10.090;2024-03-08T12:03:09;10.10;91.40
10314;DHT22;5202;49.138;10.090;2024-03-08T12:05:38;10.30;89.60
10314;DHT22;5202;49.138;10.090;2024-03-08T12:08:08;10.40;88.50
10314;DHT22;5202;49.138;10.090;2024-03-08T12:10:41;10.50;88.90
10314;DHT22;5202;49.138;10.090;2024-03-08T12:13:10;10.60;88.30
10314;DHT22;5202;49.138;10.090;2024-03-08T12:15:41;10.60;88.70
10314;DHT22;5202;49.138;10.090;2024-03-08T12:18:11;10.70;90.20
10314;DHT22;5202;49.138;10.090;2024-03-08T12:20:40;10.60;88.20
10314;DHT22;5202;49.138;10.090;2024-03-08T12:23:14;10.50;89.00
10314;DHT22;5202;49.138;10.090;2024-03-08T12:25:45;10.50;89.60
10314;DHT22;5202;49.138;10.090;2024-03-08T12:28:15;10.60;88.60
10314;DHT22;5202;49.138;10.090;2024-03-08T12:30:47;10.70;89.70
10314;DHT22;5202;49.138;10.090;2024-03-08T12:33:16;10.80;87.60
10314;DHT22;5202;49.138;10.090;2024-03-08T12:35:51;11.00;87.90
10314;DHT22;5202;49.138;10.090;2024-03-08T12:38:23;11.10;87.80
10314;DHT22;5202;49.138;10.090;2024-03-08T12:40:58;11.10;88.30
10314;DHT22;5202;49.138;10.090;2024-03-08T12:43:27;11.20;87.70
10314;DHT22;5202;49.138;10.090;2024-03-08T12:45:58;11.30;88.20
10314;DHT22;5202;49.138;10.090;2024-03-08T12:48:27;11.30;87.40
10314;DHT22;5202;49.138;10.090;2024-03-08T12:50:55;11.30;87.10
10314;DHT22;5202;49.138;10.090;2024-03-08T12:53:24;11.40;86.40
10314;DHT22;5202;49.138;10.090;2024-03-08T12:55:57;11.60;88.60
10314;DHT22;5202;49.138;10.090;2024-03-08T12:58:26;11.70;85.20
10314;DHT22;5202;49.138;10.090;2024-03-08T13:00:55;11.70;86.20
10314;DHT22;5202;49.138;10.090;2024-03-08T13:03:23;11.60;83.20
10314;DHT22;5202;49.138;10.090;2024-03-08T13:05:52;11.60;81.50
10314;DHT22;5202;49.138;10.090;2024-03-08T13:08:23;11.50;82.60
10314;DHT22;5202;49.138;10.090;2024-03-08T13:10:54;11.60;81.40
10314;DHT22;5202;49.138;10.090;2024-03-08T13:13:24;11.80;82.20
10314;DHT22;5202;49.138;10.090;2024-03-08T13:15:53;11.90;81.20
10314;DHT22;5202;49.138;10.090;2024-03-08T13:18:23;11.80;83.10
10314;DHT22;5202;49.138;10.090;2024-03-08T13:20:52;11.80;80.90
10314;DHT22;5202;49.138;10.090;2024-03-08T13:23:21;11.80;82.00
10314;DHT22;5202;49.138;10.090;2024-03-08T13:25:49;11.90;81.60
10314;DHT22;5202;49.138;10.090;2024-03-08T13:28:18;11.90;81.60
10314;DHT22;5202;49.138;10.090;2024-03-08T13:30:52;12.00;83.60
10314;DHT22;5202;49.138;10.090;2024-03-08T13:33:26;12.20;79.70
10314;DHT22;5202;49.138;10.090;2024-03-08T13:35:54;12.40;82.00
10314;DHT22;5202;49.138;10.090;2024-03-08T13:38:31;12.60;81.00
10314;DHT22;5202;49.138;10.090;2024-03-08T13:41:01;12.90;79.40
10314;DHT22;5202;49.138;10.090;2024-03-08T13:43:30;13.20;78.50
10314;DHT22;5202;49.138;10.090;2024-03-08T13:46:03;13.50;78.10
10314;DHT22;5202;49.138;10.090;2024-03-08T13:48:32;13.30;76.80
10314;DHT22;5202;49.138;10.090;2024-03-08T13:51:01;13.00;76.10
10314;DHT22;5202;49.138;10.090;2024-03-08T13:53:29;12.80;74.70
10314;DHT22;5202;49.138;10.090;2024-03-08T13:55:57;13.00;75.50
10314;DHT22;5202;49.138;10.090;2024-03-08T13:58:27;13.10;74.80
10314;DHT22;5202;49.138;10.090;2024-03-08T14:00:56;12.90;73.80
10314;DHT22;5202;49.138;10.090;2024-03-08T14:03:25;12.80;75.80
10314;DHT22;5202;49.138;10.090;2024-03-08T14:05:54;12.80;75.20
10314;DHT22;5202;49.138;10.090;2024-03-08T14:08:24;12.60;75.90
10314;DHT22;5202;49.138;10.090;2024-03-08T14:10:53;12.90;75.60
10314;DHT22;5202;49.138;10.090;2024-03-08T14:13:22;13.00;77.20
10314;DHT22;5202;49.138;10.090;2024-03-08T14:15:52;13.10;73.40
10314;DHT22;5202;49.138;10.090;2024-03-08T14:18:20;13.20;72.90
10314;DHT22;5202;49.138;10.090;2024-03-08T14:20:50;13.30;72.00
10314;DHT22;5202;49.138;10.090;2024-03-08T14:23:18;13.40;71.50
10314;DHT22;5202;49.138;10.090;2024-03-08T14:25:49;13.30;71.50
10314;DHT22;5202;49.138;10.090;2024-03-08T14:28:19;13.40;71.50
10314;DHT22;5202;49.138;10.090;2024-03-08T14:30:47;13.80;71.60
10314;DHT22;5202;49.138;10.090;2024-03-08T14:33:17;14.10;69.60
10314;DHT22;5202;49.138;10.090;2024-03-08T14:35:46;14.20;69.90
10314;DHT22;5202;49.138;10.090;2024-03-08T14:38:17;14.20;70.60
10314;DHT22;5202;49.138;10.090;2024-03-08T14:40:47;14.40;68.50
10314;DHT22;5202;49.138;10.090;2024-03-08T14:43:15;14.40;68.40
10314;DHT22;5202;49.138;10.090;2024-03-08T14:45:46;14.40;69.00
10314;DHT22;5202;49.138;10.090;2024-03-08T14:48:17;14.30;67.30
10314;DHT22;5202;49.138;10.090;2024-03-08T14:50:45;14.50;68.40
10314;DHT22;5202;49.138;10.090;2024-03-08T14:53:16;14.50;69.10
10314;DHT22;5202;49.138;10.090;2024-03-08T14:55:45;14.40;68.80
10314;DHT22;5202;49.138;10.090;2024-03-08T14:58:14;14.20;68.10
10314;DHT22;5202;49.138;10.090;2024-03-08T15:00:43;14.10;68.80
10314;DHT22;5202;49.138;10.090;2024-03-08T15:03:13;14.10;69.00
10314;DHT22;5202;49.138;10.090;2024-03-08T15:05:43;13.80;66.90
10314;DHT22;5202;49.138;10.090;2024-03-08T15:08:19;13.70;69.20
10314;DHT22;5202;49.138;10.090;2024-03-08T15:10:49;13.80;69.50
10314;DHT22;5202;49.138;10.090;2024-03-08T15:13:22;13.90;67.80
10314;DHT22;5202;49.138;10.090;2024-03-08T15:15:55;13.80;66.80
10314;DHT22;5202;49.138;10.090;2024-03-08T15:18:24;13.80;68.20
10314;DHT22;5202;49.138;10.090;2024-03-08T15:20:58;13.80;68.00
10314;DHT22;5202;49.138;10.090;2024-03-08T15:23:27;13.90;67.40
10314;DHT22;5202;49.138;10.090;2024-03-08T15:25:56;14.10;67.30
10314;DHT22;5202;49.138;10.090;2024-03-08T15:28:24;14.30;67.00
10314;DHT22;5202;49.138;10.090;2024-03-08T15:31:02;14.50;66.40
10314;DHT22;5202;49.138;10.090;2024-03-08T15:33:33;14.70;65.40
10314;DHT22;5202;49.138;10.090;2024-03-08T15:36:07;14.90;63.60
10314;DHT22;5202;49.138;10.090;2024-03-08T15:38:38;14.90;64.50
10314;DHT22;5202;49.138;10.090;2024-03-08T15:41:07;14.90;64.00
10314;DHT22;5202;49.138;10.090;2024-03-08T15:43:37;14.40;63.60
10314;DHT22;5202;49.138;10.090;2024-03-08T15:46:07;14.20;65.40
10314;DHT22;5202;49.138;10.090;2024-03-08T15:48:37;14.50;64.80
10314;DHT22;5202;49.138;10.090;2024-03-08T15:51:07;14.90;64.30
10314;DHT22;5202;49.138;10.090;2024-03-08T15:53:38;15.00;62.40
10314;DHT22;5202;49.138;10.090;2024-03-08T15:56:07;14.60;61.30
10314;DHT22;5202;49.138;10.090;2024-03-08T15:58:36;14.40;62.80
10314;DHT22;5202;49.138;10.090;2024-03-08T16:01:05;14.50;62.50